METAR Data
IDs: Format: Raw Decoded Include TAF

Data at: 1018 UTC 07 Dec 2022

KNUW 070953Z 11007KT 10SM BKN013 OVC020 05/03 A3020 RMK AO2 SLP224 T00500028 VISNO $